Terminal Aerodrome Forecast
Issued by NWS Shreveport, LA

Home | Current Version | Previous Version | Text Only | Print | Product List | Glossary On
Versions: 1 2 3 4 5 6 7 8 9 10 11 12 13 14
727
FTUS44 KSHV 261746
TAFSHV
TAF
KSHV 261746Z 2618/2718 36007KT P6SM SCT045 BKN060
     FM262000 06006KT P6SM BKN060 BKN280
     FM270000 09005KT P6SM SCT060 BKN280
     FM270800 07003KT P6SM SCT040 BKN100
     FM271100 05003KT P6SM BKN040 OVC100
     FM271500 05006KT P6SM OVC025=

USA.gov is the U.S. government's official web portal to all federal, state and local government web resources and services.